If you wish to contribute or participate in the discussions about articles you are invited to join SKYbrary as a registered user

 Actions

Ahvaz International Airport

From SKYbrary Wiki

OIAW
Airport
ICAO: OIAW – IATA: AWZ
Summary
Name Ahvaz International Airport
Region Middle East
Territory Iran IR.gif
Location Ahvaz, Khuzestan
Serving Ahvas
Elevation 20.117 m66 ft20.117 m
Coordinates 31° 20' 15", 48° 45' 37.0008"
Runways
Designator Length Width Surface ROPS
12/30 3398 m11,148.294 ft 45 m147.638 ft ASP yes/yes


METAR
Observation OIAW 242100Z 05002KT 9999 FEW010 FEW030CB BKN035 15/14 Q1008
Station Ahwaz
Date/Time 24 February 2018 21:00:00
Wind direction 50°
Wind speed 02 kts
Lowest cloud amount few clouds
Temperature 15°C
Dew point 14°C
Humidity 93%
QNH 1008 hPa
Weather condition n/a

Ahvaz (or Ahwaz) airport serves the city of Ahvaz, west Iran.

Climatology

Hot Desert Climate (Köppen climate classification BWh)

Maps

Terrain

Loading map...

Airport Layout

Loading map...


Accidents & Serious Incidents at or in vicinity of OIAW

None on SKYbrary